sensor_id;sensor_type;location;lat;lon;timestamp;temperature;humidity
27544;DHT22;17996;51.056;3.656;2023-03-31T00:00:43;13.60;99.90
27544;DHT22;17996;51.056;3.656;2023-03-31T00:03:09;13.60;99.90
27544;DHT22;17996;51.056;3.656;2023-03-31T00:05:47;13.60;99.90
27544;DHT22;17996;51.056;3.656;2023-03-31T00:08:13;13.60;99.90
27544;DHT22;17996;51.056;3.656;2023-03-31T00:10:44;13.60;99.90
27544;DHT22;17996;51.056;3.656;2023-03-31T00:13:10;13.60;99.90
27544;DHT22;17996;51.056;3.656;2023-03-31T00:15:36;13.60;99.90
27544;DHT22;17996;51.056;3.656;2023-03-31T00:18:02;13.60;99.90
27544;DHT22;17996;51.056;3.656;2023-03-31T00:20:28;13.60;99.90
27544;DHT22;17996;51.056;3.656;2023-03-31T00:22:54;13.60;99.90
27544;DHT22;17996;51.056;3.656;2023-03-31T00:25:22;13.50;99.90
27544;DHT22;17996;51.056;3.656;2023-03-31T00:27:47;13.50;99.90
27544;DHT22;17996;51.056;3.656;2023-03-31T00:30:15;13.50;99.90
27544;DHT22;17996;51.056;3.656;2023-03-31T00:32:40;13.50;99.90
27544;DHT22;17996;51.056;3.656;2023-03-31T00:35:07;13.40;99.90
27544;DHT22;17996;51.056;3.656;2023-03-31T00:37:33;13.40;99.90
27544;DHT22;17996;51.056;3.656;2023-03-31T00:39:59;13.40;99.90
27544;DHT22;17996;51.056;3.656;2023-03-31T00:42:25;13.30;99.90
27544;DHT22;17996;51.056;3.656;2023-03-31T00:47:51;13.30;99.90
27544;DHT22;17996;51.056;3.656;2023-03-31T00:50:25;13.30;99.90
27544;DHT22;17996;51.056;3.656;2023-03-31T00:53:11;13.30;99.90
27544;DHT22;17996;51.056;3.656;2023-03-31T00:55:41;13.20;99.90
27544;DHT22;17996;51.056;3.656;2023-03-31T00:58:09;13.20;99.90
27544;DHT22;17996;51.056;3.656;2023-03-31T01:00:40;13.20;99.90
27544;DHT22;17996;51.056;3.656;2023-03-31T01:03:07;13.20;99.90
27544;DHT22;17996;51.056;3.656;2023-03-31T01:05:46;13.20;99.90
27544;DHT22;17996;51.056;3.656;2023-03-31T01:08:15;13.20;99.90
27544;DHT22;17996;51.056;3.656;2023-03-31T01:10:50;13.20;99.90
27544;DHT22;17996;51.056;3.656;2023-03-31T01:13:17;13.20;99.90
27544;DHT22;17996;51.056;3.656;2023-03-31T01:15:44;13.20;99.90
27544;DHT22;17996;51.056;3.656;2023-03-31T01:18:12;13.20;99.90
27544;DHT22;17996;51.056;3.656;2023-03-31T01:35:18;13.10;99.90
27544;DHT22;17996;51.056;3.656;2023-03-31T01:40:57;13.10;99.90
27544;DHT22;17996;51.056;3.656;2023-03-31T01:46:29;13.10;99.90
27544;DHT22;17996;51.056;3.656;2023-03-31T01:51:42;13.10;99.90
27544;DHT22;17996;51.056;3.656;2023-03-31T01:54:29;13.10;99.90
27544;DHT22;17996;51.056;3.656;2023-03-31T01:57:04;13.10;99.90
27544;DHT22;17996;51.056;3.656;2023-03-31T01:59:40;13.10;99.90
27544;DHT22;17996;51.056;3.656;2023-03-31T02:02:14;13.10;99.90
27544;DHT22;17996;51.056;3.656;2023-03-31T02:04:50;13.10;99.90
27544;DHT22;17996;51.056;3.656;2023-03-31T02:07:22;13.10;99.90
27544;DHT22;17996;51.056;3.656;2023-03-31T02:09:55;13.10;99.90
27544;DHT22;17996;51.056;3.656;2023-03-31T02:12:25;13.10;99.90
27544;DHT22;17996;51.056;3.656;2023-03-31T02:14:52;13.00;99.90
27544;DHT22;17996;51.056;3.656;2023-03-31T02:17:23;13.00;99.90
27544;DHT22;17996;51.056;3.656;2023-03-31T02:20:03;13.00;99.90
27544;DHT22;17996;51.056;3.656;2023-03-31T02:22:33;13.00;99.90
27544;DHT22;17996;51.056;3.656;2023-03-31T02:25:02;13.00;99.90
27544;DHT22;17996;51.056;3.656;2023-03-31T02:27:40;13.00;99.90
27544;DHT22;17996;51.056;3.656;2023-03-31T02:30:08;12.90;99.90
27544;DHT22;17996;51.056;3.656;2023-03-31T02:32:42;12.90;99.90
27544;DHT22;17996;51.056;3.656;2023-03-31T02:35:13;12.90;99.90
27544;DHT22;17996;51.056;3.656;2023-03-31T02:37:40;12.90;99.90
27544;DHT22;17996;51.056;3.656;2023-03-31T02:40:25;12.90;99.90
27544;DHT22;17996;51.056;3.656;2023-03-31T02:42:52;12.90;99.90
27544;DHT22;17996;51.056;3.656;2023-03-31T02:45:39;12.80;99.90
27544;DHT22;17996;51.056;3.656;2023-03-31T02:48:08;12.80;99.90
27544;DHT22;17996;51.056;3.656;2023-03-31T02:50:46;12.80;99.90
27544;DHT22;17996;51.056;3.656;2023-03-31T03:04:35;12.80;99.90
27544;DHT22;17996;51.056;3.656;2023-03-31T03:15:04;12.80;99.90
27544;DHT22;17996;51.056;3.656;2023-03-31T03:17:36;12.70;99.90
27544;DHT22;17996;51.056;3.656;2023-03-31T03:20:04;12.70;99.90
27544;DHT22;17996;51.056;3.656;2023-03-31T03:22:37;12.70;99.90
27544;DHT22;17996;51.056;3.656;2023-03-31T03:25:08;12.70;99.90
27544;DHT22;17996;51.056;3.656;2023-03-31T03:27:35;12.60;99.90
27544;DHT22;17996;51.056;3.656;2023-03-31T03:30:02;12.60;99.90
27544;DHT22;17996;51.056;3.656;2023-03-31T03:32:29;12.70;99.90
27544;DHT22;17996;51.056;3.656;2023-03-31T03:34:55;12.60;99.90
27544;DHT22;17996;51.056;3.656;2023-03-31T03:37:21;12.60;99.90
27544;DHT22;17996;51.056;3.656;2023-03-31T03:39:46;12.60;99.90
27544;DHT22;17996;51.056;3.656;2023-03-31T03:42:12;12.50;99.90
27544;DHT22;17996;51.056;3.656;2023-03-31T03:44:38;12.40;99.90
27544;DHT22;17996;51.056;3.656;2023-03-31T03:47:04;12.50;99.90
27544;DHT22;17996;51.056;3.656;2023-03-31T03:49:29;12.40;99.90
27544;DHT22;17996;51.056;3.656;2023-03-31T03:51:55;12.40;99.90
27544;DHT22;17996;51.056;3.656;2023-03-31T03:54:21;12.40;99.90
27544;DHT22;17996;51.056;3.656;2023-03-31T03:56:46;12.40;99.90
27544;DHT22;17996;51.056;3.656;2023-03-31T03:59:12;12.30;99.90
27544;DHT22;17996;51.056;3.656;2023-03-31T04:01:38;12.40;99.90
27544;DHT22;17996;51.056;3.656;2023-03-31T04:04:04;12.40;99.90
27544;DHT22;17996;51.056;3.656;2023-03-31T04:06:30;12.40;99.90
27544;DHT22;17996;51.056;3.656;2023-03-31T04:08:57;12.40;99.90
27544;DHT22;17996;51.056;3.656;2023-03-31T04:11:22;12.40;99.90
27544;DHT22;17996;51.056;3.656;2023-03-31T04:13:48;12.40;99.90
27544;DHT22;17996;51.056;3.656;2023-03-31T04:16:14;12.40;99.90
27544;DHT22;17996;51.056;3.656;2023-03-31T04:18:41;12.30;99.90
27544;DHT22;17996;51.056;3.656;2023-03-31T04:21:09;12.30;99.90
27544;DHT22;17996;51.056;3.656;2023-03-31T04:23:37;12.10;99.90
27544;DHT22;17996;51.056;3.656;2023-03-31T04:26:10;12.30;99.90
27544;DHT22;17996;51.056;3.656;2023-03-31T04:28:36;12.30;99.90
27544;DHT22;17996;51.056;3.656;2023-03-31T04:31:04;12.20;99.90
27544;DHT22;17996;51.056;3.656;2023-03-31T04:33:32;12.20;99.90
27544;DHT22;17996;51.056;3.656;2023-03-31T04:35:59;12.20;99.90
27544;DHT22;17996;51.056;3.656;2023-03-31T04:38:31;12.20;99.90
27544;DHT22;17996;51.056;3.656;2023-03-31T04:41:00;12.20;99.90
27544;DHT22;17996;51.056;3.656;2023-03-31T04:43:26;12.20;99.90
27544;DHT22;17996;51.056;3.656;2023-03-31T04:45:52;12.20;99.90
27544;DHT22;17996;51.056;3.656;2023-03-31T04:48:17;12.20;99.90
27544;DHT22;17996;51.056;3.656;2023-03-31T04:50:45;12.20;99.90
27544;DHT22;17996;51.056;3.656;2023-03-31T04:53:11;12.20;99.90
27544;DHT22;17996;51.056;3.656;2023-03-31T04:55:37;12.10;99.90
27544;DHT22;17996;51.056;3.656;2023-03-31T04:58:02;12.10;99.90
27544;DHT22;17996;51.056;3.656;2023-03-31T05:00:28;12.10;99.90
27544;DHT22;17996;51.056;3.656;2023-03-31T05:02:54;12.20;99.90
27544;DHT22;17996;51.056;3.656;2023-03-31T05:05:20;12.20;99.90
27544;DHT22;17996;51.056;3.656;2023-03-31T05:07:46;12.20;99.90
27544;DHT22;17996;51.056;3.656;2023-03-31T05:10:11;12.20;99.90
27544;DHT22;17996;51.056;3.656;2023-03-31T05:12:38;12.30;99.90
27544;DHT22;17996;51.056;3.656;2023-03-31T05:15:05;12.20;99.90
27544;DHT22;17996;51.056;3.656;2023-03-31T05:17:32;12.20;99.90
27544;DHT22;17996;51.056;3.656;2023-03-31T05:19:59;12.20;99.90
27544;DHT22;17996;51.056;3.656;2023-03-31T05:22:25;12.20;99.90
27544;DHT22;17996;51.056;3.656;2023-03-31T05:24:50;12.20;99.90
27544;DHT22;17996;51.056;3.656;2023-03-31T05:27:16;12.20;99.90
27544;DHT22;17996;51.056;3.656;2023-03-31T05:29:42;12.20;99.90
27544;DHT22;17996;51.056;3.656;2023-03-31T05:32:08;12.20;99.90
27544;DHT22;17996;51.056;3.656;2023-03-31T05:34:34;12.20;99.90
27544;DHT22;17996;51.056;3.656;2023-03-31T05:36:59;12.30;99.90
27544;DHT22;17996;51.056;3.656;2023-03-31T05:39:25;12.30;99.90
27544;DHT22;17996;51.056;3.656;2023-03-31T05:41:51;12.30;99.90
27544;DHT22;17996;51.056;3.656;2023-03-31T05:44:17;12.40;99.90
27544;DHT22;17996;51.056;3.656;2023-03-31T05:46:45;12.40;99.90
27544;DHT22;17996;51.056;3.656;2023-03-31T05:49:11;12.40;99.90
27544;DHT22;17996;51.056;3.656;2023-03-31T05:51:36;12.40;99.90
27544;DHT22;17996;51.056;3.656;2023-03-31T05:54:02;12.50;99.90
27544;DHT22;17996;51.056;3.656;2023-03-31T05:56:28;12.50;99.90
27544;DHT22;17996;51.056;3.656;2023-03-31T05:58:54;12.50;99.90
27544;DHT22;17996;51.056;3.656;2023-03-31T06:01:19;12.60;99.90
27544;DHT22;17996;51.056;3.656;2023-03-31T06:03:47;12.60;99.90
27544;DHT22;17996;51.056;3.656;2023-03-31T06:06:12;12.60;99.90
27544;DHT22;17996;51.056;3.656;2023-03-31T06:08:39;12.60;99.90
27544;DHT22;17996;51.056;3.656;2023-03-31T06:11:07;12.70;99.90
27544;DHT22;17996;51.056;3.656;2023-03-31T06:13:33;12.70;99.90
27544;DHT22;17996;51.056;3.656;2023-03-31T06:16:00;12.70;99.90
27544;DHT22;17996;51.056;3.656;2023-03-31T06:18:27;12.70;99.90
27544;DHT22;17996;51.056;3.656;2023-03-31T06:20:54;12.70;99.90
27544;DHT22;17996;51.056;3.656;2023-03-31T06:23:20;12.70;99.90
27544;DHT22;17996;51.056;3.656;2023-03-31T06:25:46;12.70;99.90
27544;DHT22;17996;51.056;3.656;2023-03-31T06:28:12;12.80;99.90
27544;DHT22;17996;51.056;3.656;2023-03-31T06:30:38;12.80;99.90
27544;DHT22;17996;51.056;3.656;2023-03-31T06:33:04;12.90;99.90
27544;DHT22;17996;51.056;3.656;2023-03-31T06:35:30;12.90;99.90
27544;DHT22;17996;51.056;3.656;2023-03-31T06:37:56;12.80;99.90
27544;DHT22;17996;51.056;3.656;2023-03-31T06:40:22;12.90;99.90
27544;DHT22;17996;51.056;3.656;2023-03-31T06:42:48;12.90;99.90
27544;DHT22;17996;51.056;3.656;2023-03-31T06:45:14;12.90;99.90
27544;DHT22;17996;51.056;3.656;2023-03-31T06:47:39;12.80;99.90
27544;DHT22;17996;51.056;3.656;2023-03-31T06:50:08;12.90;99.90
27544;DHT22;17996;51.056;3.656;2023-03-31T06:52:35;12.80;99.90
27544;DHT22;17996;51.056;3.656;2023-03-31T06:55:01;12.90;99.90
27544;DHT22;17996;51.056;3.656;2023-03-31T06:57:28;12.90;99.90
27544;DHT22;17996;51.056;3.656;2023-03-31T06:59:54;13.00;99.90
27544;DHT22;17996;51.056;3.656;2023-03-31T07:02:19;13.00;99.90
27544;DHT22;17996;51.056;3.656;2023-03-31T07:04:45;13.10;99.90
27544;DHT22;17996;51.056;3.656;2023-03-31T07:07:11;13.20;99.90
27544;DHT22;17996;51.056;3.656;2023-03-31T07:09:37;13.30;99.90
27544;DHT22;17996;51.056;3.656;2023-03-31T07:12:03;13.30;99.90
27544;DHT22;17996;51.056;3.656;2023-03-31T07:14:30;13.40;99.90
27544;DHT22;17996;51.056;3.656;2023-03-31T07:16:56;13.40;99.90
27544;DHT22;17996;51.056;3.656;2023-03-31T07:19:22;13.40;99.90
27544;DHT22;17996;51.056;3.656;2023-03-31T07:21:48;13.40;99.90
27544;DHT22;17996;51.056;3.656;2023-03-31T07:24:14;13.40;99.90
27544;DHT22;17996;51.056;3.656;2023-03-31T07:26:40;13.50;99.90
27544;DHT22;17996;51.056;3.656;2023-03-31T07:29:06;13.60;99.90
27544;DHT22;17996;51.056;3.656;2023-03-31T07:31:31;13.50;99.90
27544;DHT22;17996;51.056;3.656;2023-03-31T07:33:57;13.60;99.90
27544;DHT22;17996;51.056;3.656;2023-03-31T07:36:23;13.60;99.90
27544;DHT22;17996;51.056;3.656;2023-03-31T07:38:49;13.60;99.90
27544;DHT22;17996;51.056;3.656;2023-03-31T07:41:17;13.50;99.90
27544;DHT22;17996;51.056;3.656;2023-03-31T07:43:43;13.50;99.90
27544;DHT22;17996;51.056;3.656;2023-03-31T07:46:21;13.50;99.90
27544;DHT22;17996;51.056;3.656;2023-03-31T07:48:48;13.50;99.90
27544;DHT22;17996;51.056;3.656;2023-03-31T07:51:18;13.50;99.90
27544;DHT22;17996;51.056;3.656;2023-03-31T07:53:45;13.50;99.90
27544;DHT22;17996;51.056;3.656;2023-03-31T07:56:11;13.50;99.90
27544;DHT22;17996;51.056;3.656;2023-03-31T07:58:37;13.50;99.90
27544;DHT22;17996;51.056;3.656;2023-03-31T08:01:03;13.50;99.90
27544;DHT22;17996;51.056;3.656;2023-03-31T08:03:29;13.50;99.90
27544;DHT22;17996;51.056;3.656;2023-03-31T08:05:56;13.60;99.90
27544;DHT22;17996;51.056;3.656;2023-03-31T08:08:22;13.70;99.90
27544;DHT22;17996;51.056;3.656;2023-03-31T08:10:49;13.70;99.90
27544;DHT22;17996;51.056;3.656;2023-03-31T08:13:15;13.70;99.90
27544;DHT22;17996;51.056;3.656;2023-03-31T08:15:40;13.80;99.90
27544;DHT22;17996;51.056;3.656;2023-03-31T08:18:06;13.70;99.90
27544;DHT22;17996;51.056;3.656;2023-03-31T08:20:32;13.80;99.90
27544;DHT22;17996;51.056;3.656;2023-03-31T08:22:58;13.90;99.90
27544;DHT22;17996;51.056;3.656;2023-03-31T08:25:24;14.00;99.90
27544;DHT22;17996;51.056;3.656;2023-03-31T08:27:50;14.00;99.90
27544;DHT22;17996;51.056;3.656;2023-03-31T08:30:18;14.00;99.90
27544;DHT22;17996;51.056;3.656;2023-03-31T08:32:44;13.80;99.90
27544;DHT22;17996;51.056;3.656;2023-03-31T08:35:10;13.80;99.90
27544;DHT22;17996;51.056;3.656;2023-03-31T08:37:36;13.80;99.90
27544;DHT22;17996;51.056;3.656;2023-03-31T08:40:04;13.90;99.90
27544;DHT22;17996;51.056;3.656;2023-03-31T08:42:43;13.80;99.90
27544;DHT22;17996;51.056;3.656;2023-03-31T08:45:28;13.90;99.90
27544;DHT22;17996;51.056;3.656;2023-03-31T08:48:00;13.90;99.90
27544;DHT22;17996;51.056;3.656;2023-03-31T08:50:31;13.90;99.90
27544;DHT22;17996;51.056;3.656;2023-03-31T08:53:01;13.90;99.90
27544;DHT22;17996;51.056;3.656;2023-03-31T08:55:56;14.00;99.90
27544;DHT22;17996;51.056;3.656;2023-03-31T08:58:42;14.00;99.90
27544;DHT22;17996;51.056;3.656;2023-03-31T09:01:28;14.00;99.90
27544;DHT22;17996;51.056;3.656;2023-03-31T09:09:32;14.10;99.90
27544;DHT22;17996;51.056;3.656;2023-03-31T09:15:11;14.00;99.90
27544;DHT22;17996;51.056;3.656;2023-03-31T09:17:46;14.00;99.90
27544;DHT22;17996;51.056;3.656;2023-03-31T09:20:30;14.00;99.90
27544;DHT22;17996;51.056;3.656;2023-03-31T09:23:26;14.00;99.90
27544;DHT22;17996;51.056;3.656;2023-03-31T09:25:54;13.90;99.90
27544;DHT22;17996;51.056;3.656;2023-03-31T09:28:28;13.80;99.90
27544;DHT22;17996;51.056;3.656;2023-03-31T09:30:56;13.60;99.90
27544;DHT22;17996;51.056;3.656;2023-03-31T09:33:26;13.50;99.90
27544;DHT22;17996;51.056;3.656;2023-03-31T09:36:04;13.50;99.90
27544;DHT22;17996;51.056;3.656;2023-03-31T09:38:32;13.50;99.90
27544;DHT22;17996;51.056;3.656;2023-03-31T09:41:00;13.50;99.90
27544;DHT22;17996;51.056;3.656;2023-03-31T09:43:29;13.60;99.90
27544;DHT22;17996;51.056;3.656;2023-03-31T09:45:56;13.80;99.90
27544;DHT22;17996;51.056;3.656;2023-03-31T09:48:26;13.90;99.90
27544;DHT22;17996;51.056;3.656;2023-03-31T09:53:33;14.20;99.90
27544;DHT22;17996;51.056;3.656;2023-03-31T09:56:05;14.40;99.90
27544;DHT22;17996;51.056;3.656;2023-03-31T09:58:43;14.40;99.90
27544;DHT22;17996;51.056;3.656;2023-03-31T10:01:13;14.60;99.90
27544;DHT22;17996;51.056;3.656;2023-03-31T10:03:53;14.50;99.90
27544;DHT22;17996;51.056;3.656;2023-03-31T10:06:20;14.30;99.90
27544;DHT22;17996;51.056;3.656;2023-03-31T10:11:15;13.80;99.90
27544;DHT22;17996;51.056;3.656;2023-03-31T10:16:13;13.40;99.90
27544;DHT22;17996;51.056;3.656;2023-03-31T10:18:41;13.30;99.90
27544;DHT22;17996;51.056;3.656;2023-03-31T10:21:21;13.30;99.90
27544;DHT22;17996;51.056;3.656;2023-03-31T10:23:49;13.40;99.90
27544;DHT22;17996;51.056;3.656;2023-03-31T10:26:25;13.40;99.90
27544;DHT22;17996;51.056;3.656;2023-03-31T10:28:52;13.40;99.90
27544;DHT22;17996;51.056;3.656;2023-03-31T10:31:24;13.50;99.90
27544;DHT22;17996;51.056;3.656;2023-03-31T10:33:51;13.70;99.90
27544;DHT22;17996;51.056;3.656;2023-03-31T10:36:21;13.80;99.90
27544;DHT22;17996;51.056;3.656;2023-03-31T10:38:49;13.90;99.90
27544;DHT22;17996;51.056;3.656;2023-03-31T10:41:24;13.90;99.90
27544;DHT22;17996;51.056;3.656;2023-03-31T10:43:56;14.00;99.90
27544;DHT22;17996;51.056;3.656;2023-03-31T10:46:47;14.10;99.90
27544;DHT22;17996;51.056;3.656;2023-03-31T10:49:23;14.00;99.90
27544;DHT22;17996;51.056;3.656;2023-03-31T10:51:52;13.90;99.90
27544;DHT22;17996;51.056;3.656;2023-03-31T10:54:18;13.90;99.90
27544;DHT22;17996;51.056;3.656;2023-03-31T10:57:02;14.00;99.90
27544;DHT22;17996;51.056;3.656;2023-03-31T11:02:42;14.30;99.90
27544;DHT22;17996;51.056;3.656;2023-03-31T11:05:15;14.40;99.90
27544;DHT22;17996;51.056;3.656;2023-03-31T11:11:00;14.60;99.90
27544;DHT22;17996;51.056;3.656;2023-03-31T11:13:47;14.60;99.90
27544;DHT22;17996;51.056;3.656;2023-03-31T11:19:03;14.60;99.90
27544;DHT22;17996;51.056;3.656;2023-03-31T11:21:35;14.60;99.90
27544;DHT22;17996;51.056;3.656;2023-03-31T11:41:01;14.50;99.90
27544;DHT22;17996;51.056;3.656;2023-03-31T11:46:18;14.50;99.90
27544;DHT22;17996;51.056;3.656;2023-03-31T11:49:00;14.40;99.90
27544;DHT22;17996;51.056;3.656;2023-03-31T11:51:36;14.30;99.90
27544;DHT22;17996;51.056;3.656;2023-03-31T11:54:04;14.20;99.90
27544;DHT22;17996;51.056;3.656;2023-03-31T11:56:38;14.00;99.90
27544;DHT22;17996;51.056;3.656;2023-03-31T11:59:06;14.10;99.90
27544;DHT22;17996;51.056;3.656;2023-03-31T12:02:17;14.00;99.90
27544;DHT22;17996;51.056;3.656;2023-03-31T12:04:52;14.00;99.90
27544;DHT22;17996;51.056;3.656;2023-03-31T12:10:21;13.80;99.90
27544;DHT22;17996;51.056;3.656;2023-03-31T12:12:55;13.80;99.90
27544;DHT22;17996;51.056;3.656;2023-03-31T12:15:26;13.90;99.90
27544;DHT22;17996;51.056;3.656;2023-03-31T12:18:07;14.00;99.90
27544;DHT22;17996;51.056;3.656;2023-03-31T12:20:49;14.00;99.90
27544;DHT22;17996;51.056;3.656;2023-03-31T12:23:18;13.90;99.90
27544;DHT22;17996;51.056;3.656;2023-03-31T12:28:34;13.80;99.90
27544;DHT22;17996;51.056;3.656;2023-03-31T12:31:03;13.80;99.90
27544;DHT22;17996;51.056;3.656;2023-03-31T12:39:23;13.70;99.90
27544;DHT22;17996;51.056;3.656;2023-03-31T12:47:17;13.50;99.90
27544;DHT22;17996;51.056;3.656;2023-03-31T12:52:55;13.50;99.90
27544;DHT22;17996;51.056;3.656;2023-03-31T13:01:11;13.70;99.90
27544;DHT22;17996;51.056;3.656;2023-03-31T13:03:48;13.80;99.90
27544;DHT22;17996;51.056;3.656;2023-03-31T13:08:54;13.70;99.90
27544;DHT22;17996;51.056;3.656;2023-03-31T13:16:39;13.60;99.90
27544;DHT22;17996;51.056;3.656;2023-03-31T13:19:04;13.60;99.90
27544;DHT22;17996;51.056;3.656;2023-03-31T13:21:30;13.50;99.90
27544;DHT22;17996;51.056;3.656;2023-03-31T13:24:00;13.40;99.90
27544;DHT22;17996;51.056;3.656;2023-03-31T13:29:43;13.40;99.90
27544;DHT22;17996;51.056;3.656;2023-03-31T13:34:55;13.40;99.90
27544;DHT22;17996;51.056;3.656;2023-03-31T13:48:13;13.10;99.90
27544;DHT22;17996;51.056;3.656;2023-03-31T13:51:08;13.10;99.90
27544;DHT22;17996;51.056;3.656;2023-03-31T14:07:36;13.20;99.90
27544;DHT22;17996;51.056;3.656;2023-03-31T14:10:03;13.10;99.90
27544;DHT22;17996;51.056;3.656;2023-03-31T14:12:31;13.20;99.90
27544;DHT22;17996;51.056;3.656;2023-03-31T14:14:58;13.30;99.90
27544;DHT22;17996;51.056;3.656;2023-03-31T14:17:42;13.30;99.90
27544;DHT22;17996;51.056;3.656;2023-03-31T14:26:20;13.30;99.90
27544;DHT22;17996;51.056;3.656;2023-03-31T14:37:13;13.10;99.90
27544;DHT22;17996;51.056;3.656;2023-03-31T14:39:50;13.20;99.90
27544;DHT22;17996;51.056;3.656;2023-03-31T14:48:13;13.10;99.90
27544;DHT22;17996;51.056;3.656;2023-03-31T14:50:44;13.20;99.90
27544;DHT22;17996;51.056;3.656;2023-03-31T14:53:23;13.20;99.90
27544;DHT22;17996;51.056;3.656;2023-03-31T14:55:50;13.20;99.90
27544;DHT22;17996;51.056;3.656;2023-03-31T14:58:28;13.10;99.90
27544;DHT22;17996;51.056;3.656;2023-03-31T15:00:56;13.10;99.90
27544;DHT22;17996;51.056;3.656;2023-03-31T15:03:24;13.00;99.90
27544;DHT22;17996;51.056;3.656;2023-03-31T15:05:58;12.90;99.90
27544;DHT22;17996;51.056;3.656;2023-03-31T15:08:25;12.90;99.90
27544;DHT22;17996;51.056;3.656;2023-03-31T15:10:58;12.90;99.90
27544;DHT22;17996;51.056;3.656;2023-03-31T15:13:34;12.90;99.90
27544;DHT22;17996;51.056;3.656;2023-03-31T15:16:37;12.90;99.90
27544;DHT22;17996;51.056;3.656;2023-03-31T15:19:23;12.90;99.90
27544;DHT22;17996;51.056;3.656;2023-03-31T15:21:57;12.80;99.90
27544;DHT22;17996;51.056;3.656;2023-03-31T15:24:27;12.70;99.90
27544;DHT22;17996;51.056;3.656;2023-03-31T15:27:03;12.70;99.90
27544;DHT22;17996;51.056;3.656;2023-03-31T15:29:47;12.70;99.90
27544;DHT22;17996;51.056;3.656;2023-03-31T15:32:22;12.70;99.90
27544;DHT22;17996;51.056;3.656;2023-03-31T15:34:50;12.50;99.90
27544;DHT22;17996;51.056;3.656;2023-03-31T15:37:24;12.50;99.90
27544;DHT22;17996;51.056;3.656;2023-03-31T15:39:55;12.40;99.90
27544;DHT22;17996;51.056;3.656;2023-03-31T15:42:21;12.40;99.90
27544;DHT22;17996;51.056;3.656;2023-03-31T15:44:54;12.50;99.90
27544;DHT22;17996;51.056;3.656;2023-03-31T15:47:30;12.50;99.90
27544;DHT22;17996;51.056;3.656;2023-03-31T15:50:10;12.50;99.90
27544;DHT22;17996;51.056;3.656;2023-03-31T15:52:45;12.50;99.90
27544;DHT22;17996;51.056;3.656;2023-03-31T15:55:29;12.50;99.90
27544;DHT22;17996;51.056;3.656;2023-03-31T15:57:57;12.50;99.90
27544;DHT22;17996;51.056;3.656;2023-03-31T16:03:10;12.50;99.90
27544;DHT22;17996;51.056;3.656;2023-03-31T16:05:46;12.50;99.90
27544;DHT22;17996;51.056;3.656;2023-03-31T16:08:17;12.50;99.90
27544;DHT22;17996;51.056;3.656;2023-03-31T16:10:46;12.50;99.90
27544;DHT22;17996;51.056;3.656;2023-03-31T16:13:18;12.50;99.90
27544;DHT22;17996;51.056;3.656;2023-03-31T16:15:48;12.40;99.90
27544;DHT22;17996;51.056;3.656;2023-03-31T16:18:31;12.40;99.90
27544;DHT22;17996;51.056;3.656;2023-03-31T16:21:01;12.40;99.90
27544;DHT22;17996;51.056;3.656;2023-03-31T16:23:30;12.40;99.90
27544;DHT22;17996;51.056;3.656;2023-03-31T16:25:57;12.40;99.90
27544;DHT22;17996;51.056;3.656;2023-03-31T16:28:35;12.40;99.90
27544;DHT22;17996;51.056;3.656;2023-03-31T16:31:02;12.30;99.90
27544;DHT22;17996;51.056;3.656;2023-03-31T16:33:30;12.30;99.90
27544;DHT22;17996;51.056;3.656;2023-03-31T16:36:15;12.20;99.90
27544;DHT22;17996;51.056;3.656;2023-03-31T16:38:42;12.20;99.90
27544;DHT22;17996;51.056;3.656;2023-03-31T16:41:08;12.20;99.90
27544;DHT22;17996;51.056;3.656;2023-03-31T16:43:33;12.30;99.90
27544;DHT22;17996;51.056;3.656;2023-03-31T16:46:01;12.30;99.90
27544;DHT22;17996;51.056;3.656;2023-03-31T16:48:30;12.30;99.90
27544;DHT22;17996;51.056;3.656;2023-03-31T16:50:59;12.30;99.90
27544;DHT22;17996;51.056;3.656;2023-03-31T16:53:27;12.20;99.90
27544;DHT22;17996;51.056;3.656;2023-03-31T16:55:54;12.10;99.90
27544;DHT22;17996;51.056;3.656;2023-03-31T16:58:21;12.10;99.90
27544;DHT22;17996;51.056;3.656;2023-03-31T17:00:49;12.10;99.90
27544;DHT22;17996;51.056;3.656;2023-03-31T17:03:15;12.10;99.90
27544;DHT22;17996;51.056;3.656;2023-03-31T17:05:46;12.20;99.90
27544;DHT22;17996;51.056;3.656;2023-03-31T17:08:14;12.20;99.90
27544;DHT22;17996;51.056;3.656;2023-03-31T17:10:40;12.10;99.90
27544;DHT22;17996;51.056;3.656;2023-03-31T17:13:07;12.10;99.90
27544;DHT22;17996;51.056;3.656;2023-03-31T17:15:33;12.10;99.90
27544;DHT22;17996;51.056;3.656;2023-03-31T17:18:02;12.10;99.90
27544;DHT22;17996;51.056;3.656;2023-03-31T17:20:29;12.00;99.90
27544;DHT22;17996;51.056;3.656;2023-03-31T17:22:55;12.10;99.90
27544;DHT22;17996;51.056;3.656;2023-03-31T17:25:21;12.10;99.90
27544;DHT22;17996;51.056;3.656;2023-03-31T17:27:47;12.00;99.90
27544;DHT22;17996;51.056;3.656;2023-03-31T17:30:13;12.00;99.90
27544;DHT22;17996;51.056;3.656;2023-03-31T17:32:39;12.00;99.90
27544;DHT22;17996;51.056;3.656;2023-03-31T17:35:06;11.90;99.90
27544;DHT22;17996;51.056;3.656;2023-03-31T17:37:32;11.90;99.90
27544;DHT22;17996;51.056;3.656;2023-03-31T17:39:58;11.90;99.90
27544;DHT22;17996;51.056;3.656;2023-03-31T17:42:24;12.00;99.90
27544;DHT22;17996;51.056;3.656;2023-03-31T17:44:51;11.90;99.90
27544;DHT22;17996;51.056;3.656;2023-03-31T17:47:18;11.90;99.90
27544;DHT22;17996;51.056;3.656;2023-03-31T17:49:45;12.00;99.90
27544;DHT22;17996;51.056;3.656;2023-03-31T17:52:11;12.00;99.90
27544;DHT22;17996;51.056;3.656;2023-03-31T17:54:38;12.00;99.90
27544;DHT22;17996;51.056;3.656;2023-03-31T17:57:04;12.10;99.90
27544;DHT22;17996;51.056;3.656;2023-03-31T17:59:29;12.10;99.90
27544;DHT22;17996;51.056;3.656;2023-03-31T18:01:55;12.10;99.90
27544;DHT22;17996;51.056;3.656;2023-03-31T18:04:21;12.10;99.90
27544;DHT22;17996;51.056;3.656;2023-03-31T18:06:48;12.10;99.90
27544;DHT22;17996;51.056;3.656;2023-03-31T18:09:15;12.10;99.90
27544;DHT22;17996;51.056;3.656;2023-03-31T18:11:41;12.10;99.90
27544;DHT22;17996;51.056;3.656;2023-03-31T18:14:07;12.00;99.90
27544;DHT22;17996;51.056;3.656;2023-03-31T18:16:34;12.00;99.90
27544;DHT22;17996;51.056;3.656;2023-03-31T18:19:00;11.90;99.90
27544;DHT22;17996;51.056;3.656;2023-03-31T18:21:26;11.80;99.90
27544;DHT22;17996;51.056;3.656;2023-03-31T18:23:52;11.80;99.90
27544;DHT22;17996;51.056;3.656;2023-03-31T18:26:20;11.80;99.90
27544;DHT22;17996;51.056;3.656;2023-03-31T18:28:47;11.70;99.90
27544;DHT22;17996;51.056;3.656;2023-03-31T18:31:13;11.70;99.90
27544;DHT22;17996;51.056;3.656;2023-03-31T18:33:39;11.70;99.90
27544;DHT22;17996;51.056;3.656;2023-03-31T18:36:05;11.70;99.90
27544;DHT22;17996;51.056;3.656;2023-03-31T18:38:32;11.60;99.90
27544;DHT22;17996;51.056;3.656;2023-03-31T18:40:58;11.60;99.90
27544;DHT22;17996;51.056;3.656;2023-03-31T18:43:24;11.60;99.90